createdAt,value
2022-08-24T00:00:07.321Z,24.55
2022-08-24T00:02:34.584Z,26.25
2022-08-24T00:05:01.796Z,25.58
2022-08-24T00:07:29.043Z,23.92
2022-08-24T00:09:56.310Z,24.23
2022-08-24T00:12:23.454Z,23.48
2022-08-24T00:14:50.691Z,24.73
2022-08-24T00:17:18.090Z,25.15
2022-08-24T00:19:45.246Z,24.40
2022-08-24T00:22:13.300Z,28.92
2022-08-24T00:24:40.564Z,24.13
2022-08-24T00:27:07.930Z,25.75
2022-08-24T00:29:35.214Z,25.15
2022-08-24T00:32:02.463Z,22.65
2022-08-24T00:34:30.077Z,29.20
2022-08-24T00:36:57.275Z,27.00
2022-08-24T00:39:24.476Z,29.08
2022-08-24T00:41:51.745Z,27.13
2022-08-24T00:44:19.398Z,28.98
2022-08-24T00:47:00.105Z,29.17
2022-08-24T00:49:27.246Z,27.50
2022-08-24T00:51:59.201Z,27.48
2022-08-24T00:54:26.979Z,35.45
2022-08-24T00:56:55.407Z,33.90
2022-08-24T00:59:24.547Z,32.05
2022-08-24T01:01:52.011Z,33.20
2022-08-24T01:04:20.839Z,27.25
2022-08-24T01:06:49.934Z,29.85
2022-08-24T01:09:17.342Z,29.73
2022-08-24T01:11:47.117Z,27.85
2022-08-24T01:14:14.286Z,31.70
2022-08-24T01:17:00.194Z,34.72
2022-08-24T01:19:30.126Z,35.47
2022-08-24T01:21:57.432Z,33.33
2022-08-24T01:24:24.573Z,37.33
2022-08-24T01:26:51.771Z,31.35
2022-08-24T01:29:26.426Z,33.83
2022-08-24T01:31:53.824Z,31.23
2022-08-24T01:34:21.388Z,36.78
2022-08-24T01:36:51.457Z,37.45
2022-08-24T01:39:23.049Z,35.80
2022-08-24T01:41:50.914Z,38.67
2022-08-24T01:44:18.302Z,40.13
2022-08-24T01:46:46.133Z,43.13
2022-08-24T01:49:13.466Z,38.80
2022-08-24T01:51:40.623Z,41.28
2022-08-24T01:54:07.899Z,40.03
2022-08-24T01:56:35.505Z,43.92
2022-08-24T01:59:05.319Z,40.92
2022-08-24T02:01:33.161Z,43.20
2022-08-24T02:04:00.692Z,42.58
2022-08-24T02:06:27.847Z,37.58
2022-08-24T02:08:55.971Z,43.05
2022-08-24T02:11:23.198Z,41.40
2022-08-24T02:13:50.373Z,53.45
2022-08-24T02:16:19.645Z,53.15
2022-08-24T02:18:46.873Z,56.80
2022-08-24T02:21:14.247Z,58.72
2022-08-24T02:23:41.752Z,50.10
2022-08-24T02:26:09.297Z,46.45
2022-08-24T02:28:36.643Z,47.55
2022-08-24T02:31:05.962Z,54.10
2022-08-24T02:33:33.643Z,53.05
2022-08-24T02:36:00.807Z,46.08
2022-08-24T02:38:27.986Z,51.60
2022-08-24T02:40:56.872Z,46.70
2022-08-24T02:43:24.570Z,47.80
2022-08-24T02:45:51.762Z,44.47
2022-08-24T02:48:19.116Z,47.13
2022-08-24T02:50:48.373Z,42.75
2022-08-24T02:53:15.960Z,45.92
2022-08-24T02:55:43.455Z,45.10
2022-08-24T02:58:10.944Z,42.55
2022-08-24T03:00:38.653Z,44.58
2022-08-24T03:03:06.912Z,41.40
2022-08-24T03:05:34.560Z,44.97
2022-08-24T03:08:01.744Z,42.92
2022-08-24T03:10:30.916Z,45.53
2022-08-24T03:12:59.524Z,39.83
2022-08-24T03:15:27.111Z,37.80
2022-08-24T03:17:54.336Z,38.33
2022-08-24T03:20:21.719Z,41.58
2022-08-24T03:22:48.894Z,43.80
2022-08-24T03:25:16.369Z,45.00
2022-08-24T03:27:43.525Z,44.67
2022-08-24T03:30:12.884Z,46.28
2022-08-24T03:32:41.181Z,45.60
2022-08-24T03:35:08.849Z,40.92
2022-08-24T03:37:36.026Z,47.17
2022-08-24T03:40:03.376Z,43.08
2022-08-24T03:42:32.617Z,49.55
2022-08-24T03:44:59.807Z,45.72
2022-08-24T03:47:26.994Z,48.95
2022-08-24T03:49:54.252Z,47.42
2022-08-24T03:52:21.905Z,50.13
2022-08-24T03:54:49.208Z,53.40
2022-08-24T03:57:16.410Z,51.28
2022-08-24T03:59:46.434Z,53.35
2022-08-24T04:02:14.117Z,49.05
2022-08-24T04:04:41.925Z,53.95
2022-08-24T04:07:11.482Z,54.92
2022-08-24T04:09:38.704Z,51.03
2022-08-24T04:12:05.980Z,47.15
2022-08-24T04:14:34.399Z,51.50
2022-08-24T04:17:01.806Z,53.00
2022-08-24T04:19:29.035Z,52.50
2022-08-24T04:21:59.079Z,53.88
2022-08-24T04:24:26.428Z,51.13
2022-08-24T04:26:53.647Z,56.05
2022-08-24T04:29:21.221Z,50.80
2022-08-24T04:31:48.520Z,52.28
2022-08-24T04:34:16.068Z,52.47
2022-08-24T04:36:43.651Z,52.33
2022-08-24T04:39:10.916Z,49.35
2022-08-24T04:41:38.079Z,54.88
2022-08-24T04:44:06.228Z,55.63
2022-08-24T04:46:33.388Z,53.08
2022-08-24T04:49:00.583Z,58.88
2022-08-24T04:51:29.344Z,56.28
2022-08-24T04:54:03.662Z,54.80
2022-08-24T04:56:30.833Z,62.78
2022-08-24T04:58:57.983Z,59.53
2022-08-24T05:01:26.080Z,56.92
2022-08-24T05:03:54.277Z,62.17
2022-08-24T05:06:22.358Z,64.90
2022-08-24T05:08:49.721Z,65.90
2022-08-24T05:11:17.547Z,64.68
2022-08-24T05:13:44.793Z,62.45
2022-08-24T05:16:13.846Z,65.60
2022-08-24T05:18:41.168Z,66.85
2022-08-24T05:21:08.992Z,65.20
2022-08-24T05:23:36.654Z,67.32
2022-08-24T05:26:14.382Z,71.97
2022-08-24T05:28:41.873Z,65.32
2022-08-24T05:31:16.344Z,68.97
2022-08-24T05:33:43.557Z,56.45
2022-08-24T05:36:21.259Z,65.20
2022-08-24T05:38:48.560Z,62.45
2022-08-24T05:41:16.329Z,64.75
2022-08-24T05:43:43.665Z,71.43
2022-08-24T05:46:10.894Z,64.22
2022-08-24T05:48:38.300Z,66.65
2022-08-24T05:51:05.697Z,71.32
2022-08-24T05:53:33.495Z,60.97
2022-08-24T05:56:07.264Z,68.88
2022-08-24T05:58:34.526Z,63.08
2022-08-24T06:01:06.633Z,66.97
2022-08-24T06:03:33.895Z,61.50
2022-08-24T06:06:02.586Z,59.72
2022-08-24T06:08:31.133Z,58.22
2022-08-24T06:10:58.423Z,52.33
2022-08-24T06:13:25.580Z,56.20
2022-08-24T06:16:20.429Z,53.65
2022-08-24T06:18:49.698Z,51.42
2022-08-24T06:21:17.693Z,50.22
2022-08-24T06:23:45.522Z,60.60
2022-08-24T06:26:31.943Z,56.17
2022-08-24T06:29:00.395Z,59.22
2022-08-24T06:31:27.958Z,55.75
2022-08-24T06:33:55.730Z,53.40
2022-08-24T06:36:23.189Z,55.20
2022-08-24T06:38:50.671Z,55.85
2022-08-24T06:41:17.851Z,52.38
2022-08-24T06:43:45.025Z,50.53
2022-08-24T06:46:12.627Z,46.05
2022-08-24T06:48:39.983Z,48.15
2022-08-24T06:51:13.755Z,50.10
2022-08-24T06:53:41.512Z,49.28
2022-08-24T06:56:08.795Z,46.35
2022-08-24T06:58:36.050Z,51.08
2022-08-24T07:01:13.068Z,51.90
2022-08-24T07:03:40.269Z,50.67
2022-08-24T07:06:07.697Z,49.75
2022-08-24T07:08:35.021Z,47.40
2022-08-24T07:11:02.696Z,48.55
2022-08-24T07:13:31.164Z,49.95
2022-08-24T07:15:58.504Z,51.20
2022-08-24T07:18:25.958Z,46.92
2022-08-24T07:20:54.075Z,48.63
2022-08-24T07:23:21.343Z,51.10
2022-08-24T07:25:52.120Z,43.50
2022-08-24T07:28:31.519Z,37.60
2022-08-24T07:30:59.489Z,42.33
2022-08-24T07:33:26.745Z,45.78
2022-08-24T07:35:56.276Z,42.83
2022-08-24T07:38:24.053Z,41.70
2022-08-24T07:43:42.942Z,44.00
2022-08-24T07:46:10.616Z,43.33
2022-08-24T07:48:37.855Z,42.92
2022-08-24T07:51:14.306Z,42.13
2022-08-24T07:53:53.421Z,46.80
2022-08-24T07:56:21.298Z,45.55
2022-08-24T07:58:48.515Z,50.50
2022-08-24T08:01:15.819Z,47.78
2022-08-24T08:03:43.022Z,48.17
2022-08-24T08:06:16.258Z,46.95
2022-08-24T08:08:43.786Z,45.55
2022-08-24T08:11:11.029Z,46.72
2022-08-24T08:13:38.916Z,37.72
2022-08-24T08:16:08.551Z,46.05
2022-08-24T08:18:36.230Z,43.90
2022-08-24T08:21:26.598Z,42.00
2022-08-24T08:24:12.990Z,38.90
2022-08-24T08:26:40.171Z,37.55
2022-08-24T08:29:07.666Z,41.50
2022-08-24T08:31:34.884Z,40.65
2022-08-24T08:34:02.165Z,40.55
2022-08-24T08:36:29.445Z,39.33
2022-08-24T08:38:56.768Z,37.92
2022-08-24T08:41:43.907Z,42.17
2022-08-24T08:44:17.291Z,37.58
2022-08-24T08:46:53.714Z,40.67
2022-08-24T08:49:39.531Z,40.67
2022-08-24T08:52:09.591Z,42.40
2022-08-24T08:54:45.829Z,42.28
2022-08-24T08:57:22.308Z,43.63
2022-08-24T08:59:55.722Z,44.22
2022-08-24T09:02:41.635Z,43.22
2022-08-24T09:05:27.949Z,43.88
2022-08-24T09:08:09.025Z,39.70
2022-08-24T09:10:36.257Z,44.78
2022-08-24T09:13:12.337Z,46.75
2022-08-24T09:15:45.268Z,42.22
2022-08-24T09:18:18.822Z,44.38
2022-08-24T09:20:49.418Z,39.67
2022-08-24T09:23:26.766Z,45.55
2022-08-24T09:26:04.683Z,41.08
2022-08-24T09:28:34.729Z,42.05
2022-08-24T09:31:20.167Z,42.92
2022-08-24T09:34:02.759Z,41.28
2022-08-24T09:36:35.246Z,42.03
2022-08-24T09:39:06.135Z,38.28
2022-08-24T09:41:44.508Z,35.63
2022-08-24T09:44:17.789Z,34.25
2022-08-24T09:46:54.011Z,37.95
2022-08-24T09:49:24.240Z,36.08
2022-08-24T09:51:56.446Z,36.30
2022-08-24T09:54:24.125Z,30.55
2022-08-24T09:57:09.399Z,31.75
2022-08-24T09:59:44.878Z,30.50
2022-08-24T10:02:15.978Z,28.77
2022-08-24T10:04:55.754Z,32.13
2022-08-24T10:07:32.103Z,29.33
2022-08-24T10:10:11.455Z,34.13
2022-08-24T10:12:56.310Z,29.23
2022-08-24T10:15:23.808Z,29.10
2022-08-24T10:18:06.250Z,29.23
2022-08-24T10:20:41.750Z,27.52
2022-08-24T10:23:27.785Z,26.58
2022-08-24T10:26:03.142Z,29.42
2022-08-24T10:28:50.769Z,27.40
2022-08-24T10:31:24.155Z,26.83
2022-08-24T10:33:51.379Z,27.88
2022-08-24T10:36:21.047Z,27.67
2022-08-24T10:39:39.991Z,26.08
2022-08-24T10:42:44.478Z,26.90
2022-08-24T10:45:28.761Z,24.52
2022-08-24T10:48:05.756Z,27.70
2022-08-24T10:50:36.259Z,28.55
2022-08-24T10:53:03.486Z,23.38
2022-08-24T10:55:31.512Z,24.67
2022-08-24T10:58:11.162Z,28.27
2022-08-24T11:00:38.486Z,28.70
2022-08-24T11:03:10.951Z,29.02
2022-08-24T11:05:43.147Z,27.83
2022-08-24T11:08:10.703Z,25.60
2022-08-24T11:10:38.733Z,24.80
2022-08-24T11:13:24.286Z,26.23
2022-08-24T11:15:53.605Z,28.40
2022-08-24T11:18:21.382Z,28.52
2022-08-24T11:20:49.060Z,23.75
2022-08-24T11:23:19.209Z,30.45
2022-08-24T11:25:59.644Z,26.63
2022-08-24T11:28:26.788Z,22.52
2022-08-24T11:30:53.931Z,26.80
2022-08-24T11:33:26.190Z,22.02
2022-08-24T11:35:53.360Z,23.17
2022-08-24T11:38:22.376Z,24.63
2022-08-24T11:40:57.171Z,23.15
2022-08-24T11:43:33.571Z,25.83
2022-08-24T11:46:00.746Z,25.17
2022-08-24T11:48:37.710Z,29.02
2022-08-24T11:51:05.019Z,28.90
2022-08-24T11:53:32.201Z,27.40
2022-08-24T11:56:00.293Z,26.00
2022-08-24T11:58:49.665Z,31.35
2022-08-24T12:01:24.206Z,21.77
2022-08-24T12:04:09.921Z,25.00
2022-08-24T12:06:44.377Z,24.50
2022-08-24T12:09:30.458Z,29.15
2022-08-24T12:11:57.610Z,30.85
2022-08-24T12:14:34.248Z,24.70
2022-08-24T12:17:04.286Z,22.88
2022-08-24T12:19:35.637Z,28.38
2022-08-24T12:22:04.398Z,28.25
2022-08-24T12:24:34.269Z,27.73
2022-08-24T12:27:11.508Z,25.92
2022-08-24T12:29:38.646Z,31.63
2022-08-24T12:32:07.967Z,25.73
2022-08-24T12:34:42.131Z,21.02
2022-08-24T12:37:35.968Z,24.38
2022-08-24T12:40:11.244Z,24.45
2022-08-24T12:42:51.731Z,32.13
2022-08-24T12:45:20.371Z,28.08
2022-08-24T12:47:53.517Z,25.05
2022-08-24T12:50:25.211Z,29.15
2022-08-24T12:53:13.621Z,30.13
2022-08-24T12:56:00.037Z,30.17
2022-08-24T12:58:53.831Z,22.42
2022-08-24T13:01:25.626Z,32.00
2022-08-24T13:04:16.129Z,26.80
2022-08-24T13:06:48.598Z,23.23
2022-08-24T13:09:38.422Z,32.63
2022-08-24T13:12:34.719Z,31.05
2022-08-24T13:15:20.463Z,30.65
2022-08-24T13:17:47.644Z,23.50
2022-08-24T13:20:20.816Z,32.20
2022-08-24T13:22:49.842Z,26.60
2022-08-24T13:25:40.390Z,29.17
2022-08-24T13:28:09.054Z,32.97
2022-08-24T13:30:38.622Z,28.33
2022-08-24T13:33:07.350Z,30.98
2022-08-24T13:35:55.968Z,32.50
2022-08-24T13:38:32.250Z,24.88
2022-08-24T13:41:14.453Z,33.58
2022-08-24T13:43:41.591Z,31.98
2022-08-24T13:46:14.965Z,25.10
2022-08-24T13:48:47.989Z,35.53
2022-08-24T13:51:38.577Z,29.85
2022-08-24T13:54:24.507Z,35.17
2022-08-24T13:56:58.713Z,35.83
2022-08-24T13:59:44.483Z,27.65
2022-08-24T14:02:18.392Z,36.83
2022-08-24T14:04:48.913Z,29.88
2022-08-24T14:07:31.061Z,29.45
2022-08-24T14:10:08.258Z,28.52
2022-08-24T14:12:45.071Z,33.53
2022-08-24T14:15:12.212Z,29.85
2022-08-24T14:17:55.111Z,34.67
2022-08-24T14:20:30.955Z,30.80
2022-08-24T14:23:04.227Z,34.63
2022-08-24T14:25:33.708Z,32.35
2022-08-24T14:28:00.898Z,33.03
2022-08-24T14:30:28.316Z,28.45
2022-08-24T14:32:58.321Z,28.65
2022-08-24T14:35:32.592Z,29.45
2022-08-24T14:38:18.573Z,26.75
2022-08-24T14:41:12.332Z,31.48
2022-08-24T14:43:59.740Z,33.97
2022-08-24T14:46:33.809Z,28.48
2022-08-24T14:49:04.670Z,29.73
2022-08-24T14:51:44.027Z,41.67
2022-08-24T14:54:13.937Z,27.65
2022-08-24T14:56:48.419Z,60.42
2022-08-24T14:59:37.879Z,29.50
2022-08-24T15:02:16.375Z,61.90
2022-08-24T15:04:44.150Z,110.97
2022-08-24T15:07:31.616Z,68.28
2022-08-24T15:09:59.206Z,41.78
2022-08-24T15:12:38.836Z,33.20
2022-08-24T15:15:06.079Z,54.25
2022-08-24T15:17:44.076Z,32.47
2022-08-24T15:20:29.559Z,31.38
2022-08-24T15:22:58.742Z,32.00
2022-08-24T15:25:44.638Z,32.13
2022-08-24T15:28:16.118Z,32.58
2022-08-24T15:30:47.023Z,29.52
2022-08-24T15:33:19.753Z,35.83
2022-08-24T15:35:51.829Z,26.75
2022-08-24T15:38:18.999Z,30.92
2022-08-24T15:40:46.318Z,25.48
2022-08-24T15:43:13.527Z,33.90
2022-08-24T15:45:45.817Z,31.83
2022-08-24T15:48:13.025Z,29.52
2022-08-24T15:50:44.275Z,34.40
2022-08-24T15:53:26.456Z,30.23
2022-08-24T15:55:53.615Z,30.13
2022-08-24T15:58:20.793Z,33.83
2022-08-24T16:01:06.772Z,33.13
2022-08-24T16:03:44.162Z,28.88
2022-08-24T16:06:19.317Z,36.30
2022-08-24T16:08:58.571Z,34.80
2022-08-24T16:11:30.559Z,30.13
2022-08-24T16:13:58.989Z,29.85
2022-08-24T16:16:34.442Z,33.67
2022-08-24T16:19:02.252Z,33.42
2022-08-24T16:21:55.499Z,38.00
2022-08-24T16:24:36.114Z,33.58
2022-08-24T16:27:10.633Z,38.00
2022-08-24T16:29:37.901Z,42.58
2022-08-24T16:32:22.283Z,31.33
2022-08-24T16:35:02.474Z,43.70
2022-08-24T16:37:29.697Z,47.13
2022-08-24T16:39:56.957Z,29.25
2022-08-24T16:42:28.112Z,32.17
2022-08-24T16:44:55.449Z,36.28
2022-08-24T16:47:22.645Z,32.72
2022-08-24T16:49:49.937Z,33.00
2022-08-24T16:52:17.601Z,34.00
2022-08-24T16:54:44.951Z,37.90
2022-08-24T16:57:15.766Z,34.65
2022-08-24T16:59:45.155Z,41.20
2022-08-24T17:02:12.912Z,57.67
2022-08-24T17:04:40.380Z,60.05
2022-08-24T17:07:09.027Z,57.58
2022-08-24T17:09:37.235Z,42.78
2022-08-24T17:12:04.959Z,41.35
2022-08-24T17:14:32.144Z,39.65
2022-08-24T17:16:59.577Z,35.75
2022-08-24T17:19:26.913Z,40.65
2022-08-24T17:21:56.261Z,43.15
2022-08-24T17:24:23.573Z,40.05
2022-08-24T17:26:53.434Z,40.60
2022-08-24T17:29:20.765Z,37.13
2022-08-24T17:31:49.814Z,38.40
2022-08-24T17:34:17.238Z,39.17
2022-08-24T17:36:44.845Z,33.72
2022-08-24T17:39:12.255Z,35.90
2022-08-24T17:41:39.495Z,36.63
2022-08-24T17:44:07.636Z,36.90
2022-08-24T17:46:35.356Z,36.00
2022-08-24T17:49:02.531Z,35.40
2022-08-24T17:51:29.726Z,37.00
2022-08-24T17:53:56.962Z,37.55
2022-08-24T17:56:24.112Z,37.22
2022-08-24T17:59:10.031Z,34.08
2022-08-24T18:01:38.370Z,37.60
2022-08-24T18:04:05.657Z,36.22
2022-08-24T18:06:32.908Z,34.30
2022-08-24T18:09:01.269Z,49.75
2022-08-24T18:11:28.453Z,32.47
2022-08-24T18:13:55.635Z,41.30
2022-08-24T18:16:23.659Z,35.38
2022-08-24T18:18:51.573Z,36.65
2022-08-24T18:21:20.229Z,37.35
2022-08-24T18:23:48.430Z,43.55
2022-08-24T18:26:25.863Z,41.90
2022-08-24T18:28:55.079Z,37.10
2022-08-24T18:31:22.288Z,42.35
2022-08-24T18:33:49.906Z,36.72
2022-08-24T18:36:17.362Z,35.60
2022-08-24T18:38:44.553Z,43.38
2022-08-24T18:41:11.806Z,52.88
2022-08-24T18:43:38.951Z,59.83
2022-08-24T18:46:06.286Z,38.97
2022-08-24T18:48:33.610Z,43.97
2022-08-24T18:51:00.841Z,48.58
2022-08-24T18:53:28.075Z,44.60
2022-08-24T18:55:55.323Z,45.28
2022-08-24T18:58:22.545Z,51.65
2022-08-24T19:00:50.914Z,46.25
2022-08-24T19:03:19.253Z,46.20
2022-08-24T19:05:46.568Z,41.75
2022-08-24T19:08:13.857Z,45.75
2022-08-24T19:10:41.069Z,56.85
2022-08-24T19:13:15.146Z,39.25
2022-08-24T19:15:42.816Z,44.53
2022-08-24T19:18:11.232Z,46.45
2022-08-24T19:20:47.207Z,43.05
2022-08-24T19:23:18.254Z,39.70
2022-08-24T19:25:45.527Z,45.00
2022-08-24T19:28:12.731Z,41.03
2022-08-24T19:31:26.500Z,44.80
2022-08-24T19:33:53.710Z,47.50
2022-08-24T19:36:22.393Z,50.10
2022-08-24T19:38:49.551Z,43.00
2022-08-24T19:41:17.520Z,43.08
2022-08-24T19:44:03.506Z,47.50
2022-08-24T19:46:31.308Z,42.97
2022-08-24T19:48:58.480Z,49.28
2022-08-24T19:51:26.684Z,48.78
2022-08-24T19:53:53.886Z,44.72
2022-08-24T19:56:21.048Z,47.78
2022-08-24T19:58:51.889Z,53.28
2022-08-24T20:01:23.119Z,54.40
2022-08-24T20:03:50.578Z,59.88
2022-08-24T20:06:18.162Z,62.58
2022-08-24T20:08:48.495Z,56.45
2022-08-24T20:11:15.877Z,45.97
2022-08-24T20:13:43.138Z,47.40
2022-08-24T20:16:12.015Z,44.33
2022-08-24T20:18:39.578Z,36.63
2022-08-24T20:21:07.087Z,42.63
2022-08-24T20:23:34.404Z,44.83
2022-08-24T20:26:01.908Z,46.92
2022-08-24T20:28:38.215Z,46.95
2022-08-24T20:31:05.706Z,40.40
2022-08-24T20:33:32.924Z,44.80
2022-08-24T20:36:00.186Z,42.60
2022-08-24T20:38:29.343Z,47.42
2022-08-24T20:40:59.546Z,49.92
2022-08-24T20:43:26.716Z,45.53
2022-08-24T20:45:53.963Z,45.50
2022-08-24T20:48:30.903Z,44.80
2022-08-24T20:50:58.173Z,41.88
2022-08-24T20:53:26.756Z,44.70
2022-08-24T20:55:54.602Z,50.67
2022-08-24T20:58:22.051Z,50.92
2022-08-24T21:00:49.549Z,52.45
2022-08-24T21:03:18.760Z,54.95
2022-08-24T21:05:46.436Z,48.75
2022-08-24T21:08:13.642Z,42.22
2022-08-24T21:10:42.227Z,48.17
2022-08-24T21:13:09.429Z,35.38
2022-08-24T21:15:37.754Z,38.00
2022-08-24T21:18:05.282Z,45.13
2022-08-24T21:20:32.758Z,43.33
2022-08-24T21:23:00.007Z,41.97
2022-08-24T21:25:27.505Z,37.83
2022-08-24T21:27:54.671Z,41.42
2022-08-24T21:30:22.187Z,47.13
2022-08-24T21:33:08.218Z,45.95
2022-08-24T21:35:35.401Z,45.28
2022-08-24T21:38:02.557Z,37.05
2022-08-24T21:40:29.855Z,41.13
2022-08-24T21:42:57.070Z,39.33
2022-08-24T21:45:24.375Z,42.30
2022-08-24T21:47:51.631Z,42.20
2022-08-24T21:50:19.650Z,40.20
2022-08-24T21:52:53.937Z,33.40
2022-08-24T21:55:21.564Z,29.77
2022-08-24T21:57:48.748Z,41.47
2022-08-24T22:00:18.070Z,45.13
2022-08-24T22:02:45.253Z,43.08
2022-08-24T22:05:12.453Z,44.50
2022-08-24T22:07:39.643Z,35.75
2022-08-24T22:10:08.077Z,38.60
2022-08-24T22:12:35.991Z,35.10
2022-08-24T22:15:03.763Z,32.40
2022-08-24T22:17:31.043Z,37.60
2022-08-24T22:19:58.196Z,35.45
2022-08-24T22:22:25.574Z,36.30
2022-08-24T22:24:52.843Z,38.08
2022-08-24T22:27:20.840Z,30.48
2022-08-24T22:29:52.878Z,35.13
2022-08-24T22:32:20.190Z,30.20
2022-08-24T22:34:47.342Z,28.55
2022-08-24T22:37:14.535Z,32.22
2022-08-24T22:39:41.707Z,37.83
2022-08-24T22:42:08.935Z,35.33
2022-08-24T22:44:36.181Z,40.10
2022-08-24T22:47:03.839Z,38.00
2022-08-24T22:49:40.287Z,38.80
2022-08-24T22:52:08.487Z,43.53
2022-08-24T22:54:35.730Z,42.92
2022-08-24T22:57:03.004Z,47.63
2022-08-24T22:59:32.618Z,41.38
2022-08-24T23:01:59.834Z,42.92
2022-08-24T23:04:28.717Z,41.35
2022-08-24T23:06:55.955Z,45.85
2022-08-24T23:09:23.450Z,44.15
2022-08-24T23:11:52.329Z,40.97
2022-08-24T23:14:19.542Z,47.60
2022-08-24T23:16:50.093Z,42.63
2022-08-24T23:19:36.763Z,42.25
2022-08-24T23:22:04.481Z,38.65
2022-08-24T23:24:31.668Z,39.72
2022-08-24T23:26:58.860Z,40.97
2022-08-24T23:29:26.015Z,38.58
2022-08-24T23:31:53.897Z,43.13
2022-08-24T23:34:21.131Z,40.08
2022-08-24T23:36:48.504Z,45.33
2022-08-24T23:39:15.746Z,38.45
2022-08-24T23:41:44.324Z,41.38
2022-08-24T23:44:17.453Z,46.72
2022-08-24T23:46:44.826Z,47.33
2022-08-24T23:49:12.680Z,49.03
2022-08-24T23:51:39.866Z,53.80
2022-08-24T23:54:07.498Z,71.45
2022-08-24T23:56:35.448Z,69.88
2022-08-24T23:59:06.433Z,63.35
